createdAt,value
2023-03-24T00:02:25.029Z,29.73
2023-03-24T00:04:54.369Z,29.77
2023-03-24T00:07:25.292Z,30.20
2023-03-24T00:09:55.227Z,29.95
2023-03-24T00:12:24.143Z,30.17
2023-03-24T00:14:54.761Z,31.75
2023-03-24T00:17:25.648Z,32.50
2023-03-24T00:19:56.246Z,32.72
2023-03-24T00:22:24.320Z,30.92
2023-03-24T00:24:52.398Z,32.25
2023-03-24T00:27:21.477Z,33.58
2023-03-24T00:29:50.617Z,32.08
2023-03-24T00:32:18.702Z,34.22
2023-03-24T00:34:46.933Z,30.27
2023-03-24T00:37:15.129Z,30.98
2023-03-24T00:39:44.596Z,32.35
2023-03-24T00:42:30.900Z,32.60
2023-03-24T00:44:59.907Z,31.58
2023-03-24T00:47:27.998Z,30.92
2023-03-24T00:49:58.958Z,32.95
2023-03-24T00:52:47.769Z,32.35
2023-03-24T00:56:03.132Z,30.20
2023-03-24T00:58:34.769Z,32.42
2023-03-24T01:01:16.281Z,32.33
2023-03-24T01:03:53.544Z,31.17
2023-03-24T01:06:42.681Z,32.25
2023-03-24T01:09:14.142Z,33.67
2023-03-24T01:11:42.762Z,35.38
2023-03-24T01:14:26.178Z,32.63
2023-03-24T01:17:56.227Z,30.98
2023-03-24T01:20:37.920Z,32.53
2023-03-24T01:23:22.650Z,29.98
2023-03-24T01:25:52.530Z,31.83
2023-03-24T01:28:57.827Z,33.08
2023-03-24T01:31:38.726Z,30.80
2023-03-24T01:34:09.727Z,29.63
2023-03-24T01:36:38.304Z,30.85
2023-03-24T01:39:06.964Z,30.40
2023-03-24T01:42:08.040Z,28.83
2023-03-24T01:48:39.139Z,28.33
2023-03-24T01:51:25.651Z,27.02
2023-03-24T01:54:04.953Z,28.58
2023-03-24T01:56:41.029Z,28.65
2023-03-24T01:59:20.353Z,32.22
2023-03-24T02:01:49.050Z,32.67
2023-03-24T02:04:17.314Z,28.60
2023-03-24T02:06:46.699Z,29.52
2023-03-24T02:09:15.802Z,28.42
2023-03-24T02:15:11.497Z,25.65
2023-03-24T02:17:57.554Z,27.35
2023-03-24T02:21:05.847Z,24.83
2023-03-24T02:24:24.559Z,26.48
2023-03-24T02:27:04.586Z,27.23
2023-03-24T02:33:16.909Z,27.83
2023-03-24T02:35:56.954Z,25.55
2023-03-24T02:41:35.078Z,27.75
2023-03-24T02:44:39.650Z,26.25
2023-03-24T02:51:27.881Z,25.17
2023-03-24T02:55:03.302Z,25.98
2023-03-24T02:58:07.918Z,27.67
2023-03-24T03:01:38.474Z,27.92
2023-03-24T03:04:12.244Z,26.75
2023-03-24T03:06:44.975Z,26.00
2023-03-24T03:09:25.352Z,27.48
2023-03-24T03:12:23.188Z,28.35
2023-03-24T03:15:32.524Z,25.70
2023-03-24T03:18:33.522Z,24.25
2023-03-24T03:21:08.098Z,23.02
2023-03-24T03:23:40.312Z,23.48
2023-03-24T03:26:26.330Z,24.58
2023-03-24T03:29:00.615Z,25.67
2023-03-24T03:31:39.353Z,23.30
2023-03-24T03:34:33.683Z,24.55
2023-03-24T03:37:11.860Z,23.00
2023-03-24T03:40:12.020Z,23.27
2023-03-24T03:42:49.519Z,23.77
2023-03-24T03:45:21.407Z,24.52
2023-03-24T03:48:09.778Z,23.10
2023-03-24T03:50:39.683Z,23.02
2023-03-24T03:55:38.463Z,22.45
2023-03-24T03:58:07.093Z,22.92
2023-03-24T04:00:37.481Z,23.58
2023-03-24T04:03:29.213Z,22.85
2023-03-24T04:06:30.388Z,22.85
2023-03-24T04:09:25.673Z,23.48
2023-03-24T04:12:03.359Z,22.63
2023-03-24T04:14:51.047Z,22.90
2023-03-24T04:17:26.725Z,23.08
2023-03-24T04:23:01.153Z,22.60
2023-03-24T04:25:29.529Z,22.73
2023-03-24T04:28:22.265Z,22.92
2023-03-24T04:31:10.049Z,22.95
2023-03-24T04:36:54.675Z,21.75
2023-03-24T04:39:28.799Z,22.15
2023-03-24T04:42:11.056Z,20.95
2023-03-24T04:44:43.216Z,23.35
2023-03-24T04:47:23.359Z,21.95
2023-03-24T04:49:51.622Z,20.95
2023-03-24T04:52:20.015Z,21.30
2023-03-24T04:54:51.836Z,21.20
2023-03-24T05:00:18.032Z,21.15
2023-03-24T05:03:20.656Z,21.00
2023-03-24T05:05:57.608Z,21.85
2023-03-24T05:08:29.277Z,22.23
2023-03-24T05:11:23.423Z,20.88
2023-03-24T05:13:55.550Z,21.45
2023-03-24T05:16:24.013Z,22.52
2023-03-24T05:18:58.346Z,23.13
2023-03-24T05:21:27.399Z,20.75
2023-03-24T05:23:55.753Z,20.85
2023-03-24T05:26:24.131Z,20.90
2023-03-24T05:28:52.797Z,21.98
2023-03-24T05:31:24.697Z,21.60
2023-03-24T05:33:53.140Z,22.63
2023-03-24T05:36:21.202Z,21.38
2023-03-24T05:38:49.663Z,21.77
2023-03-24T05:41:18.766Z,23.08
2023-03-24T05:43:51.361Z,22.00
2023-03-24T05:46:21.022Z,20.92
2023-03-24T05:51:25.667Z,21.50
2023-03-24T05:53:58.357Z,21.73
2023-03-24T05:56:28.471Z,20.52
2023-03-24T05:58:56.633Z,19.70
2023-03-24T06:01:25.699Z,20.48
2023-03-24T06:03:54.174Z,20.67
2023-03-24T06:06:22.728Z,19.65
2023-03-24T06:09:04.965Z,20.52
2023-03-24T06:11:33.421Z,19.08
2023-03-24T06:14:01.584Z,18.77
2023-03-24T06:19:25.015Z,20.75
2023-03-24T06:21:56.195Z,19.80
2023-03-24T06:24:24.368Z,19.20
2023-03-24T06:26:52.436Z,19.35
2023-03-24T06:29:36.577Z,19.92
2023-03-24T06:35:11.919Z,20.23
2023-03-24T06:37:40.516Z,19.08
2023-03-24T06:40:15.407Z,19.70
2023-03-24T06:42:43.714Z,18.27
2023-03-24T06:45:13.632Z,18.92
2023-03-24T06:47:42.603Z,18.17
2023-03-24T06:50:11.308Z,18.80
2023-03-24T06:52:42.800Z,17.55
2023-03-24T06:55:25.485Z,17.38
2023-03-24T06:57:57.976Z,17.10
2023-03-24T07:00:30.593Z,16.90
2023-03-24T07:02:59.687Z,16.73
2023-03-24T07:05:27.947Z,16.55
2023-03-24T07:10:28.366Z,17.23
2023-03-24T07:13:03.556Z,16.17
2023-03-24T07:15:32.270Z,16.95
2023-03-24T07:18:01.079Z,16.55
2023-03-24T07:20:32.349Z,16.80
2023-03-24T07:23:01.238Z,14.85
2023-03-24T07:25:29.635Z,15.15
2023-03-24T07:28:03.370Z,15.67
2023-03-24T07:30:39.881Z,14.05
2023-03-24T07:33:32.695Z,14.63
2023-03-24T07:36:43.313Z,13.73
2023-03-24T07:39:17.280Z,14.38
2023-03-24T07:41:46.803Z,14.48
2023-03-24T07:44:17.801Z,14.70
2023-03-24T07:46:46.600Z,15.30
2023-03-24T07:49:19.515Z,14.53
2023-03-24T07:51:48.265Z,14.82
2023-03-24T07:54:20.282Z,15.00
2023-03-24T07:56:51.482Z,14.07
2023-03-24T07:59:20.427Z,14.07
2023-03-24T08:01:54.818Z,13.73
2023-03-24T08:04:27.693Z,14.63
2023-03-24T08:06:56.897Z,14.38
2023-03-24T08:09:28.289Z,14.43
2023-03-24T08:11:57.865Z,13.90
2023-03-24T08:14:27.101Z,15.02
2023-03-24T08:19:58.276Z,16.33
2023-03-24T08:22:38.646Z,15.90
2023-03-24T08:25:11.082Z,15.27
2023-03-24T08:27:58.688Z,14.80
2023-03-24T08:30:32.478Z,13.50
2023-03-24T08:39:14.855Z,16.58
2023-03-24T08:41:54.497Z,16.40
2023-03-24T08:46:57.181Z,17.55
2023-03-24T08:49:26.310Z,16.10
2023-03-24T08:52:03.387Z,15.98
2023-03-24T08:54:35.514Z,17.77
2023-03-24T08:57:59.018Z,18.10
2023-03-24T09:00:36.989Z,17.92
2023-03-24T09:03:07.773Z,17.13
2023-03-24T09:05:44.569Z,17.30
2023-03-24T09:08:16.327Z,16.45
2023-03-24T09:10:56.254Z,17.05
2023-03-24T09:13:25.292Z,17.10
2023-03-24T09:15:58.609Z,16.33
2023-03-24T09:18:29.219Z,15.70
2023-03-24T09:20:57.551Z,16.90
2023-03-24T09:23:26.130Z,16.88
2023-03-24T09:25:54.898Z,17.92
2023-03-24T09:28:23.799Z,18.80
2023-03-24T09:31:18.194Z,18.33
2023-03-24T09:33:52.908Z,18.48
2023-03-24T09:36:27.208Z,18.55
2023-03-24T09:38:55.224Z,18.55
2023-03-24T09:44:06.226Z,17.92
2023-03-24T09:46:58.270Z,18.23
2023-03-24T09:49:33.731Z,18.40
2023-03-24T09:52:07.667Z,17.70
2023-03-24T09:54:51.029Z,17.20
2023-03-24T09:57:47.569Z,16.98
2023-03-24T10:00:24.539Z,17.58
2023-03-24T10:02:56.098Z,17.42
2023-03-24T10:06:09.340Z,17.77
2023-03-24T10:08:42.331Z,18.00
2023-03-24T10:11:38.750Z,19.25
2023-03-24T10:14:22.907Z,18.92
2023-03-24T10:17:15.393Z,18.42
2023-03-24T10:20:07.983Z,17.80
2023-03-24T10:22:53.650Z,17.10
2023-03-24T10:28:40.841Z,18.38
2023-03-24T10:31:15.779Z,17.55
2023-03-24T10:33:46.045Z,18.33
2023-03-24T10:36:18.860Z,18.17
2023-03-24T10:38:47.787Z,18.27
2023-03-24T10:41:29.071Z,17.92
2023-03-24T10:43:59.591Z,18.55
2023-03-24T10:46:36.764Z,17.95
2023-03-24T10:49:10.458Z,18.75
2023-03-24T10:51:40.229Z,18.02
2023-03-24T10:54:23.957Z,18.13
2023-03-24T10:57:19.410Z,19.27
2023-03-24T10:59:55.718Z,19.25
2023-03-24T11:02:31.870Z,20.17
2023-03-24T11:05:23.992Z,19.38
2023-03-24T11:07:54.044Z,18.98
2023-03-24T11:10:29.278Z,19.42
2023-03-24T11:12:58.884Z,19.63
2023-03-24T11:15:29.643Z,20.55
2023-03-24T11:18:05.076Z,19.77
2023-03-24T11:20:36.867Z,21.85
2023-03-24T11:23:17.048Z,21.25
2023-03-24T11:25:51.831Z,21.27
2023-03-24T11:28:27.092Z,21.23
2023-03-24T11:30:55.964Z,21.08
2023-03-24T11:33:36.383Z,21.97
2023-03-24T11:36:36.822Z,21.70
2023-03-24T11:39:22.541Z,23.58
2023-03-24T11:42:05.966Z,25.15
2023-03-24T11:44:48.720Z,25.60
2023-03-24T11:47:25.849Z,28.80
2023-03-24T11:50:14.007Z,29.98
2023-03-24T11:52:57.293Z,28.63
2023-03-24T11:56:19.193Z,28.42
2023-03-24T11:59:05.064Z,28.67
2023-03-24T12:01:47.764Z,28.50
2023-03-24T12:04:28.845Z,28.33
2023-03-24T12:07:20.871Z,26.67
2023-03-24T12:09:59.111Z,27.20
2023-03-24T12:13:01.453Z,26.73
2023-03-24T12:15:42.549Z,25.02
2023-03-24T12:18:35.796Z,24.40
2023-03-24T12:21:19.115Z,24.58
2023-03-24T12:24:00.147Z,24.67
2023-03-24T12:26:31.928Z,26.17
2023-03-24T12:29:35.912Z,24.65
2023-03-24T12:32:42.736Z,24.20
2023-03-24T12:35:18.193Z,25.63
2023-03-24T12:38:08.731Z,24.45
2023-03-24T12:40:55.300Z,24.92
2023-03-24T12:43:44.944Z,26.05
2023-03-24T12:46:40.630Z,24.40
2023-03-24T12:49:32.990Z,24.02
2023-03-24T12:52:19.382Z,24.88
2023-03-24T12:55:07.568Z,25.40
2023-03-24T12:58:10.599Z,24.67
2023-03-24T13:00:58.083Z,25.33
2023-03-24T13:03:41.603Z,25.45
2023-03-24T13:06:23.102Z,25.75
2023-03-24T13:09:15.114Z,26.25
2023-03-24T13:11:56.841Z,25.77
2023-03-24T13:14:31.920Z,25.25
2023-03-24T13:17:15.167Z,27.00
2023-03-24T13:19:44.788Z,26.67
2023-03-24T13:22:21.154Z,26.08
2023-03-24T13:24:49.788Z,27.25
2023-03-24T13:27:36.846Z,26.25
2023-03-24T13:30:17.762Z,24.95
2023-03-24T13:33:01.746Z,25.52
2023-03-24T13:35:43.061Z,24.67
2023-03-24T13:38:43.880Z,23.55
2023-03-24T13:41:30.951Z,23.85
2023-03-24T13:44:03.821Z,23.60
2023-03-24T13:46:32.993Z,23.30
2023-03-24T13:49:02.171Z,23.48
2023-03-24T13:51:41.633Z,23.70
2023-03-24T13:54:26.856Z,23.77
2023-03-24T13:56:54.956Z,22.40
2023-03-24T13:59:26.183Z,24.65
2023-03-24T14:02:23.625Z,23.42
2023-03-24T14:05:10.807Z,23.10
2023-03-24T14:07:42.040Z,23.20
2023-03-24T14:10:37.610Z,23.73
2023-03-24T14:13:12.937Z,24.02
2023-03-24T14:15:54.867Z,24.05
2023-03-24T14:18:27.190Z,24.40
2023-03-24T14:20:58.446Z,25.92
2023-03-24T14:23:58.437Z,26.02
2023-03-24T14:26:26.957Z,25.73
2023-03-24T14:28:57.557Z,26.90
2023-03-24T14:31:33.510Z,25.67
2023-03-24T14:34:05.992Z,26.27
2023-03-24T14:36:40.943Z,26.73
2023-03-24T14:39:18.009Z,26.13
2023-03-24T14:41:52.119Z,26.45
2023-03-24T14:44:49.670Z,26.00
2023-03-24T14:47:23.821Z,26.00
2023-03-24T14:49:59.614Z,26.85
2023-03-24T14:52:41.338Z,27.15
2023-03-24T14:55:16.774Z,26.05
2023-03-24T14:57:48.642Z,26.70
2023-03-24T15:00:23.158Z,26.60
2023-03-24T15:03:01.045Z,28.58
2023-03-24T15:05:32.493Z,27.80
2023-03-24T15:08:07.835Z,27.88
2023-03-24T15:10:44.950Z,27.65
2023-03-24T15:13:37.572Z,28.63
2023-03-24T15:16:31.526Z,28.67
2023-03-24T15:19:12.256Z,28.45
2023-03-24T15:21:47.100Z,29.92
2023-03-24T15:24:38.832Z,30.23
2023-03-24T15:27:12.072Z,29.85
2023-03-24T15:29:42.203Z,30.67
2023-03-24T15:32:33.155Z,29.60
2023-03-24T15:35:06.019Z,28.60
2023-03-24T15:37:36.747Z,29.50
2023-03-24T15:40:15.692Z,30.00
2023-03-24T15:42:46.660Z,29.13
2023-03-24T15:45:44.625Z,28.80
2023-03-24T15:48:17.004Z,29.42
2023-03-24T15:51:06.911Z,28.98
2023-03-24T15:53:40.599Z,29.10
2023-03-24T15:56:27.091Z,29.15
2023-03-24T15:59:14.086Z,29.10
2023-03-24T16:01:45.169Z,29.60
2023-03-24T16:04:18.570Z,27.55
2023-03-24T16:06:53.645Z,28.60
2023-03-24T16:09:27.527Z,28.52
2023-03-24T16:11:56.297Z,27.98
2023-03-24T16:14:25.619Z,28.42
2023-03-24T16:17:00.010Z,29.08
2023-03-24T16:19:28.847Z,28.15
2023-03-24T16:21:57.139Z,28.50
2023-03-24T16:24:26.180Z,27.38
2023-03-24T16:26:55.087Z,29.20
2023-03-24T16:29:27.458Z,29.05
2023-03-24T16:31:57.555Z,28.13
2023-03-24T16:34:25.792Z,29.58
2023-03-24T16:36:55.140Z,28.13
2023-03-24T16:39:28.921Z,29.48
2023-03-24T16:41:57.457Z,29.35
2023-03-24T16:44:26.100Z,28.73
2023-03-24T16:46:56.207Z,28.80
2023-03-24T16:49:25.168Z,30.30
2023-03-24T16:51:54.068Z,29.93
2023-03-24T16:54:22.326Z,29.23
2023-03-24T16:56:51.374Z,29.85
2023-03-24T16:59:20.000Z,31.02
2023-03-24T17:01:48.341Z,29.98
2023-03-24T17:04:19.574Z,28.98
2023-03-24T17:06:55.576Z,29.30
2023-03-24T17:09:24.159Z,29.48
2023-03-24T17:11:54.597Z,29.67
2023-03-24T17:14:23.788Z,30.58
2023-03-24T17:16:53.456Z,30.80
2023-03-24T17:19:23.729Z,32.15
2023-03-24T17:22:11.889Z,31.05
2023-03-24T17:24:42.487Z,31.10
2023-03-24T17:27:19.027Z,30.25
2023-03-24T17:29:47.589Z,31.40
2023-03-24T17:32:16.179Z,31.05
2023-03-24T17:34:48.593Z,31.75
2023-03-24T17:37:17.600Z,31.42
2023-03-24T17:39:46.422Z,34.10
2023-03-24T17:42:14.711Z,33.00
2023-03-24T17:44:42.876Z,32.67
2023-03-24T17:47:11.106Z,33.17
2023-03-24T17:49:39.272Z,32.90
2023-03-24T17:52:07.507Z,32.90
2023-03-24T17:54:36.363Z,33.08
2023-03-24T17:57:04.481Z,32.90
2023-03-24T17:59:33.909Z,33.00
2023-03-24T18:02:01.960Z,32.95
2023-03-24T18:04:30.310Z,34.05
2023-03-24T18:07:00.457Z,33.03
2023-03-24T18:09:28.846Z,33.28
2023-03-24T18:11:58.888Z,34.15
2023-03-24T18:14:28.166Z,33.83
2023-03-24T18:16:56.280Z,34.15
2023-03-24T18:19:24.682Z,33.58
2023-03-24T18:21:53.556Z,33.55
2023-03-24T18:24:21.605Z,35.35
2023-03-24T18:26:50.434Z,34.45
2023-03-24T18:29:22.993Z,34.47
2023-03-24T18:31:52.449Z,33.47
2023-03-24T18:34:23.294Z,33.65
2023-03-24T18:36:51.696Z,35.33
2023-03-24T18:39:19.792Z,34.20
2023-03-24T18:41:48.340Z,34.97
2023-03-24T18:44:17.770Z,33.33
2023-03-24T18:46:46.769Z,35.17
2023-03-24T18:49:15.557Z,35.45
2023-03-24T18:51:45.405Z,35.45
2023-03-24T18:56:41.993Z,34.92
2023-03-24T18:59:11.873Z,33.53
2023-03-24T19:01:41.122Z,35.38
2023-03-24T19:04:09.644Z,35.95
2023-03-24T19:06:42.755Z,35.25
2023-03-24T19:09:13.776Z,35.35
2023-03-24T19:11:43.617Z,34.80
2023-03-24T19:16:39.483Z,35.70
2023-03-24T19:19:08.997Z,36.33
2023-03-24T19:21:38.139Z,35.72
2023-03-24T19:24:06.645Z,35.67
2023-03-24T19:26:34.632Z,37.13
2023-03-24T19:29:02.764Z,36.53
2023-03-24T19:31:30.940Z,35.20
2023-03-24T19:33:59.885Z,36.33
2023-03-24T19:36:28.320Z,35.83
2023-03-24T19:38:57.823Z,35.80
2023-03-24T19:41:27.474Z,36.08
2023-03-24T19:43:56.463Z,36.17
2023-03-24T19:46:24.769Z,36.92
2023-03-24T19:48:52.944Z,35.33
2023-03-24T19:51:21.807Z,35.67
2023-03-24T19:53:49.928Z,36.85
2023-03-24T19:56:20.718Z,37.10
2023-03-24T19:58:49.737Z,35.28
2023-03-24T20:01:18.274Z,35.10
2023-03-24T20:03:46.644Z,36.15
2023-03-24T20:06:15.864Z,37.97
2023-03-24T20:08:45.538Z,36.53
2023-03-24T20:11:13.671Z,37.95
2023-03-24T20:13:41.935Z,35.10
2023-03-24T20:16:10.940Z,35.22
2023-03-24T20:18:40.185Z,37.50
2023-03-24T20:21:09.470Z,36.90
2023-03-24T20:23:38.583Z,36.17
2023-03-24T20:26:06.967Z,35.83
2023-03-24T20:28:35.845Z,34.85
2023-03-24T20:31:04.637Z,35.22
2023-03-24T20:33:32.755Z,35.42
2023-03-24T20:36:01.277Z,35.00
2023-03-24T20:38:29.666Z,34.42
2023-03-24T20:41:08.136Z,34.75
2023-03-24T20:43:37.974Z,35.10
2023-03-24T20:46:08.589Z,35.22
2023-03-24T20:48:37.591Z,36.58
2023-03-24T20:51:06.046Z,37.00
2023-03-24T20:53:36.686Z,34.75
2023-03-24T20:56:07.834Z,36.28
2023-03-24T20:58:39.132Z,36.38
2023-03-24T21:01:09.595Z,35.08
2023-03-24T21:03:37.801Z,36.00
2023-03-24T21:06:07.113Z,35.55
2023-03-24T21:08:35.120Z,36.38
2023-03-24T21:11:03.153Z,36.85
2023-03-24T21:13:37.368Z,37.33
2023-03-24T21:16:11.283Z,36.35
2023-03-24T21:18:43.741Z,35.42
2023-03-24T21:21:12.960Z,36.28
2023-03-24T21:23:42.482Z,36.55
2023-03-24T21:26:15.458Z,36.85
2023-03-24T21:28:43.796Z,35.85
2023-03-24T21:31:26.755Z,34.20
2023-03-24T21:33:56.593Z,36.13
2023-03-24T21:36:31.656Z,36.85
2023-03-24T21:38:59.847Z,35.53
2023-03-24T21:41:29.066Z,35.78
2023-03-24T21:44:00.917Z,35.00
2023-03-24T21:46:32.297Z,35.67
2023-03-24T21:49:01.213Z,36.70
2023-03-24T21:51:35.038Z,34.53
2023-03-24T21:54:06.934Z,35.70
2023-03-24T21:56:38.253Z,37.13
2023-03-24T21:59:07.397Z,36.58
2023-03-24T22:01:36.499Z,37.13
2023-03-24T22:04:06.793Z,37.03
2023-03-24T22:06:39.085Z,37.83
2023-03-24T22:09:08.420Z,36.45
2023-03-24T22:11:38.299Z,38.08
2023-03-24T22:14:07.178Z,38.25
2023-03-24T22:16:35.551Z,38.70
2023-03-24T22:19:03.726Z,38.78
2023-03-24T22:21:32.625Z,37.97
2023-03-24T22:24:00.933Z,40.38
2023-03-24T22:26:29.149Z,37.67
2023-03-24T22:28:57.457Z,37.75
2023-03-24T22:31:25.669Z,37.08
2023-03-24T22:33:54.872Z,37.80
2023-03-24T22:36:22.922Z,38.60
2023-03-24T22:38:51.300Z,38.35
2023-03-24T22:41:19.326Z,38.78
2023-03-24T22:43:47.361Z,40.10
2023-03-24T22:46:15.833Z,40.33
2023-03-24T22:48:44.033Z,39.97
2023-03-24T22:51:17.252Z,39.72
2023-03-24T22:53:48.601Z,40.97
2023-03-24T22:56:16.829Z,41.63
2023-03-24T22:58:45.001Z,41.33
2023-03-24T23:01:13.241Z,41.25
2023-03-24T23:03:42.098Z,41.45
2023-03-24T23:06:12.202Z,40.42
2023-03-24T23:11:08.530Z,42.97
2023-03-24T23:13:36.495Z,43.53
2023-03-24T23:16:06.042Z,44.40
2023-03-24T23:18:34.847Z,43.35
2023-03-24T23:21:09.492Z,44.10
2023-03-24T23:23:39.345Z,44.38
2023-03-24T23:26:26.123Z,43.03
2023-03-24T23:28:57.184Z,44.72
2023-03-24T23:31:27.743Z,47.42
2023-03-24T23:33:57.863Z,44.38
2023-03-24T23:36:28.733Z,47.13
2023-03-24T23:38:57.649Z,50.65
2023-03-24T23:41:25.817Z,51.10
2023-03-24T23:43:55.335Z,51.83
2023-03-24T23:46:25.368Z,50.67
2023-03-24T23:51:22.349Z,46.67
2023-03-24T23:53:51.857Z,44.83
2023-03-24T23:56:22.536Z,45.42
2023-03-24T23:58:50.488Z,46.75
